BAW787 ESGG-EGLL
Flight info
| Callsign | BAW787 |
|---|---|
| Flight time | 1h 43m |
| Altitude | 38000 |
| Route | VADIN DCT ABINO DCT ATTUS DCT BEDUM DCT SPY DCT ABNED L980 LOGAN |
| Aircraft | A319/M-SDE3FGIJ1KRWXY/LB1 |
Departure
| Time | 2026-05-05 10:19 |
|---|---|
| Airport | Göteborg Landvetter Airport (ESGG) |
Arrival
| Time | 2026-05-05 12:03 |
|---|---|
| Airport | London Heathrow Airport (EGLL) |
| Time | Latitude | Longitude | Altitude | Speed | Heading |
|---|---|---|---|---|---|
| 2026-05-05 09:35 | 57.66730 | 12.29261 | 516 ft | 0 kts | 116° |
| 2026-05-05 10:10 | 57.66732 | 12.29250 | 516 ft | 4 kts | 116° |
| 2026-05-05 10:10 | 57.66745 | 12.29205 | 516 ft | 4 kts | 116° |
| 2026-05-05 10:10 | 57.66755 | 12.29160 | 516 ft | 4 kts | 112° |
| 2026-05-05 10:10 | 57.66764 | 12.29113 | 517 ft | 4 kts | 100° |
| 2026-05-05 10:11 | 57.66766 | 12.29096 | 516 ft | 0 kts | 99° |
| 2026-05-05 10:13 | 57.66767 | 12.29140 | 516 ft | 6 kts | 68° |
| 2026-05-05 10:14 | 57.66816 | 12.29203 | 516 ft | 13 kts | 25° |
| 2026-05-05 10:14 | 57.66905 | 12.29286 | 516 ft | 15 kts | 27° |
| 2026-05-05 10:14 | 57.66979 | 12.29314 | 516 ft | 9 kts | 315° |
| 2026-05-05 10:14 | 57.67015 | 12.29199 | 516 ft | 11 kts | 318° |
| 2026-05-05 10:15 | 57.67091 | 12.29229 | 516 ft | 13 kts | 26° |
| 2026-05-05 10:15 | 57.67180 | 12.29311 | 516 ft | 15 kts | 26° |
| 2026-05-05 10:15 | 57.67280 | 12.29407 | 516 ft | 17 kts | 25° |
| 2026-05-05 10:15 | 57.67369 | 12.29481 | 516 ft | 8 kts | 19° |
| 2026-05-05 10:16 | 57.67419 | 12.29444 | 516 ft | 8 kts | 306° |
| 2026-05-05 10:16 | 57.67448 | 12.29338 | 516 ft | 9 kts | 296° |
| 2026-05-05 10:16 | 57.67457 | 12.29287 | 515 ft | 0 kts | 283° |
| 2026-05-05 10:17 | 57.67457 | 12.29286 | 515 ft | 1 kts | 283° |
| 2026-05-05 10:17 | 57.67461 | 12.29256 | 515 ft | 4 kts | 279° |
| 2026-05-05 10:18 | 57.67459 | 12.29170 | 514 ft | 9 kts | 263° |
| 2026-05-05 10:18 | 57.67446 | 12.29045 | 515 ft | 11 kts | 250° |
| 2026-05-05 10:18 | 57.67381 | 12.28979 | 515 ft | 15 kts | 204° |
| 2026-05-05 10:18 | 57.67103 | 12.28727 | 514 ft | 76 kts | 206° |
| 2026-05-05 10:19 | 57.66454 | 12.28135 | 513 ft | 130 kts | 206° |
| 2026-05-05 10:19 | 57.65518 | 12.27267 | 725 ft | 157 kts | 210° |
| 2026-05-05 10:19 | 57.64527 | 12.26364 | 1378 ft | 161 kts | 211° |
| 2026-05-05 10:19 | 57.63503 | 12.25431 | 2014 ft | 170 kts | 213° |
| 2026-05-05 10:20 | 57.62379 | 12.24390 | 2338 ft | 191 kts | 212° |
| 2026-05-05 10:20 | 57.61093 | 12.23284 | 2702 ft | 218 kts | 201° |
| 2026-05-05 10:20 | 57.59510 | 12.22722 | 3189 ft | 244 kts | 191° |
| 2026-05-05 10:20 | 57.57747 | 12.22475 | 3799 ft | 264 kts | 187° |
| 2026-05-05 10:21 | 57.55870 | 12.22313 | 4681 ft | 272 kts | 187° |
| 2026-05-05 10:21 | 57.53976 | 12.22131 | 5701 ft | 275 kts | 188° |
| 2026-05-05 10:21 | 57.52058 | 12.21845 | 6674 ft | 277 kts | 189° |
| 2026-05-05 10:21 | 57.50129 | 12.21487 | 7650 ft | 280 kts | 191° |
| 2026-05-05 10:22 | 57.48184 | 12.21091 | 8638 ft | 283 kts | 192° |
| 2026-05-05 10:22 | 57.46220 | 12.20669 | 9593 ft | 285 kts | 194° |
| 2026-05-05 10:22 | 57.44326 | 12.19728 | 10453 ft | 280 kts | 209° |
| 2026-05-05 10:22 | 57.42623 | 12.17973 | 11064 ft | 286 kts | 222° |
| 2026-05-05 10:23 | 57.41124 | 12.15392 | 11360 ft | 303 kts | 231° |
| 2026-05-05 10:23 | 57.39638 | 12.12536 | 11998 ft | 311 kts | 230° |
| 2026-05-05 10:23 | 57.38118 | 12.09657 | 12809 ft | 313 kts | 230° |
| 2026-05-05 10:23 | 57.36589 | 12.06789 | 13647 ft | 313 kts | 230° |
| 2026-05-05 10:24 | 57.35053 | 12.03916 | 14382 ft | 314 kts | 230° |
| 2026-05-05 10:24 | 57.33507 | 12.01026 | 14998 ft | 318 kts | 230° |
| 2026-05-05 10:24 | 57.31938 | 11.98092 | 15644 ft | 322 kts | 230° |
| 2026-05-05 10:24 | 57.30357 | 11.95142 | 16299 ft | 325 kts | 230° |
| 2026-05-05 10:25 | 57.28758 | 11.92159 | 16960 ft | 328 kts | 230° |
| 2026-05-05 10:25 | 57.27144 | 11.89154 | 17612 ft | 331 kts | 230° |
| 2026-05-05 10:25 | 57.25515 | 11.86126 | 18260 ft | 334 kts | 230° |
| 2026-05-05 10:25 | 57.23870 | 11.83069 | 18839 ft | 337 kts | 229° |
| 2026-05-05 10:26 | 57.22212 | 11.79992 | 19398 ft | 340 kts | 229° |
| 2026-05-05 10:26 | 57.20518 | 11.76849 | 19982 ft | 342 kts | 229° |
| 2026-05-05 10:26 | 57.18831 | 11.73721 | 20558 ft | 345 kts | 229° |
| 2026-05-05 10:26 | 57.17133 | 11.70580 | 21122 ft | 348 kts | 229° |
| 2026-05-05 10:27 | 57.15415 | 11.67410 | 21682 ft | 350 kts | 229° |
| 2026-05-05 10:27 | 57.13668 | 11.64263 | 22225 ft | 355 kts | 225° |
| 2026-05-05 10:27 | 57.11732 | 11.61383 | 22753 ft | 359 kts | 223° |
| 2026-05-05 10:27 | 57.09772 | 11.58518 | 23256 ft | 361 kts | 223° |
| 2026-05-05 10:28 | 57.07804 | 11.55641 | 23754 ft | 363 kts | 223° |
| 2026-05-05 10:28 | 57.05827 | 11.52751 | 24191 ft | 365 kts | 223° |
| 2026-05-05 10:28 | 57.03836 | 11.49843 | 24607 ft | 367 kts | 223° |
| 2026-05-05 10:28 | 57.01825 | 11.46909 | 25023 ft | 370 kts | 223° |
| 2026-05-05 10:29 | 56.99804 | 11.43962 | 25439 ft | 372 kts | 223° |
| 2026-05-05 10:29 | 56.97774 | 11.41010 | 25830 ft | 374 kts | 223° |
| 2026-05-05 10:29 | 56.95724 | 11.38036 | 26236 ft | 377 kts | 222° |
| 2026-05-05 10:29 | 56.93661 | 11.35045 | 26632 ft | 379 kts | 222° |
| 2026-05-05 10:30 | 56.91583 | 11.32038 | 27042 ft | 382 kts | 222° |
| 2026-05-05 10:30 | 56.89490 | 11.29016 | 27438 ft | 384 kts | 222° |
| 2026-05-05 10:30 | 56.87380 | 11.25977 | 27830 ft | 387 kts | 222° |
| 2026-05-05 10:30 | 56.85256 | 11.22919 | 28138 ft | 390 kts | 222° |
| 2026-05-05 10:31 | 56.83114 | 11.19838 | 28488 ft | 394 kts | 222° |
| 2026-05-05 10:31 | 56.80956 | 11.16741 | 28858 ft | 396 kts | 222° |
| 2026-05-05 10:31 | 56.78782 | 11.13621 | 29222 ft | 399 kts | 221° |
| 2026-05-05 10:31 | 56.76591 | 11.10483 | 29583 ft | 401 kts | 221° |
| 2026-05-05 10:32 | 56.74385 | 11.07331 | 29929 ft | 404 kts | 221° |
| 2026-05-05 10:32 | 56.72168 | 11.04162 | 30233 ft | 406 kts | 221° |
| 2026-05-05 10:32 | 56.69940 | 11.00986 | 30524 ft | 408 kts | 221° |
| 2026-05-05 10:32 | 56.67698 | 10.97797 | 30810 ft | 410 kts | 221° |
| 2026-05-05 10:33 | 56.66172 | 10.95629 | 31006 ft | 412 kts | 221° |
| 2026-05-05 10:33 | 56.63175 | 10.91384 | 31346 ft | 414 kts | 221° |
| 2026-05-05 10:33 | 56.61637 | 10.89209 | 31577 ft | 414 kts | 221° |
| 2026-05-05 10:33 | 56.59362 | 10.85997 | 31932 ft | 414 kts | 221° |
| 2026-05-05 10:34 | 56.57087 | 10.82787 | 32309 ft | 414 kts | 221° |
| 2026-05-05 10:34 | 56.54814 | 10.79583 | 32694 ft | 414 kts | 221° |
| 2026-05-05 10:34 | 56.52547 | 10.76388 | 33092 ft | 413 kts | 221° |
| 2026-05-05 10:34 | 56.50278 | 10.73194 | 33474 ft | 412 kts | 221° |
| 2026-05-05 10:35 | 56.48013 | 10.70008 | 33875 ft | 412 kts | 221° |
| 2026-05-05 10:35 | 56.45750 | 10.66835 | 34229 ft | 411 kts | 221° |
| 2026-05-05 10:35 | 56.43487 | 10.63672 | 34549 ft | 411 kts | 221° |
| 2026-05-05 10:35 | 56.41224 | 10.60517 | 34860 ft | 412 kts | 221° |
| 2026-05-05 10:36 | 56.38954 | 10.57350 | 35133 ft | 412 kts | 221° |
| 2026-05-05 10:36 | 56.36685 | 10.54183 | 35374 ft | 414 kts | 221° |
| 2026-05-05 10:36 | 56.34405 | 10.51005 | 35614 ft | 415 kts | 221° |
| 2026-05-05 10:36 | 56.32115 | 10.47825 | 35887 ft | 415 kts | 221° |
| 2026-05-05 10:37 | 56.29825 | 10.44650 | 36167 ft | 416 kts | 221° |
| 2026-05-05 10:37 | 56.27532 | 10.41478 | 36444 ft | 416 kts | 220° |
| 2026-05-05 10:37 | 56.25239 | 10.38307 | 36716 ft | 415 kts | 220° |
| 2026-05-05 10:37 | 56.22944 | 10.35141 | 36978 ft | 415 kts | 220° |
| 2026-05-05 10:38 | 56.20653 | 10.31984 | 37245 ft | 415 kts | 220° |
| 2026-05-05 10:38 | 56.18358 | 10.28826 | 37495 ft | 415 kts | 220° |
| 2026-05-05 10:38 | 56.16065 | 10.25674 | 37740 ft | 415 kts | 220° |
| 2026-05-05 10:38 | 56.13764 | 10.22519 | 37911 ft | 416 kts | 220° |
| 2026-05-05 10:39 | 56.09159 | 10.16227 | 37968 ft | 416 kts | 220° |
| 2026-05-05 10:39 | 56.04559 | 10.09947 | 37968 ft | 416 kts | 220° |
| 2026-05-05 10:40 | 55.99954 | 10.03676 | 37968 ft | 416 kts | 220° |
| 2026-05-05 10:40 | 55.95313 | 9.97501 | 37964 ft | 417 kts | 218° |
| 2026-05-05 10:41 | 55.90469 | 9.91776 | 37949 ft | 418 kts | 216° |
| 2026-05-05 10:41 | 55.85559 | 9.86231 | 37938 ft | 418 kts | 216° |
| 2026-05-05 10:42 | 55.78192 | 9.77778 | 37949 ft | 418 kts | 216° |
| 2026-05-05 10:43 | 55.73321 | 9.72120 | 37946 ft | 418 kts | 216° |
| 2026-05-05 10:43 | 55.68442 | 9.66480 | 37950 ft | 419 kts | 216° |
| 2026-05-05 10:44 | 55.63556 | 9.60853 | 37956 ft | 419 kts | 216° |
| 2026-05-05 10:44 | 55.58669 | 9.55256 | 37953 ft | 419 kts | 216° |
| 2026-05-05 10:45 | 55.53770 | 9.49671 | 37968 ft | 419 kts | 216° |
| 2026-05-05 10:45 | 55.48876 | 9.44101 | 37966 ft | 419 kts | 216° |
| 2026-05-05 10:46 | 55.43982 | 9.38536 | 37955 ft | 419 kts | 216° |
| 2026-05-05 10:46 | 55.39081 | 9.32987 | 37962 ft | 419 kts | 216° |
| 2026-05-05 10:47 | 55.34175 | 9.27445 | 37966 ft | 419 kts | 216° |
| 2026-05-05 10:47 | 55.29263 | 9.21929 | 37957 ft | 419 kts | 216° |
| 2026-05-05 10:48 | 55.24352 | 9.16404 | 37972 ft | 419 kts | 216° |
| 2026-05-05 10:48 | 55.19434 | 9.10900 | 37975 ft | 419 kts | 216° |
| 2026-05-05 10:49 | 55.14509 | 9.05420 | 37937 ft | 420 kts | 215° |
| 2026-05-05 10:49 | 55.09538 | 8.99887 | 37956 ft | 421 kts | 215° |
| 2026-05-05 10:50 | 55.04596 | 8.94401 | 37956 ft | 421 kts | 215° |
| 2026-05-05 10:50 | 54.99648 | 8.88930 | 37958 ft | 422 kts | 215° |
| 2026-05-05 10:51 | 54.94687 | 8.83468 | 37959 ft | 422 kts | 215° |
| 2026-05-05 10:51 | 54.89771 | 8.77916 | 37945 ft | 421 kts | 220° |
| 2026-05-05 10:52 | 54.85312 | 8.71358 | 37963 ft | 420 kts | 223° |
| 2026-05-05 10:52 | 54.80867 | 8.64779 | 37967 ft | 420 kts | 223° |
| 2026-05-05 10:53 | 54.76406 | 8.58196 | 37972 ft | 421 kts | 223° |
| 2026-05-05 10:53 | 54.71948 | 8.51639 | 37974 ft | 421 kts | 223° |
| 2026-05-05 10:54 | 54.67480 | 8.45089 | 37957 ft | 421 kts | 223° |
| 2026-05-05 10:54 | 54.63010 | 8.38543 | 37969 ft | 422 kts | 223° |
| 2026-05-05 10:55 | 54.58530 | 8.32006 | 37973 ft | 422 kts | 222° |
| 2026-05-05 10:55 | 54.54042 | 8.25483 | 37974 ft | 422 kts | 222° |
| 2026-05-05 10:56 | 54.49552 | 8.18968 | 37981 ft | 422 kts | 222° |
| 2026-05-05 10:56 | 54.45055 | 8.12472 | 37971 ft | 422 kts | 222° |
| 2026-05-05 10:57 | 54.40554 | 8.05993 | 37978 ft | 422 kts | 222° |
| 2026-05-05 10:57 | 54.36051 | 7.99529 | 37988 ft | 422 kts | 222° |
| 2026-05-05 10:58 | 54.31541 | 7.93073 | 37987 ft | 422 kts | 222° |
| 2026-05-05 10:58 | 54.26998 | 7.86581 | 37987 ft | 423 kts | 222° |
| 2026-05-05 10:59 | 54.22483 | 7.80147 | 37971 ft | 423 kts | 222° |
| 2026-05-05 10:59 | 54.17963 | 7.73723 | 37975 ft | 423 kts | 222° |
| 2026-05-05 11:00 | 54.13441 | 7.67307 | 37979 ft | 423 kts | 221° |
| 2026-05-05 11:00 | 54.08902 | 7.60906 | 37986 ft | 423 kts | 221° |
| 2026-05-05 11:01 | 54.04361 | 7.54521 | 37992 ft | 423 kts | 221° |
| 2026-05-05 11:01 | 53.99812 | 7.48145 | 37969 ft | 424 kts | 221° |
| 2026-05-05 11:02 | 53.95269 | 7.41782 | 37976 ft | 423 kts | 221° |
| 2026-05-05 11:02 | 53.90718 | 7.35429 | 37983 ft | 423 kts | 221° |
| 2026-05-05 11:03 | 53.86164 | 7.29097 | 37976 ft | 424 kts | 221° |
| 2026-05-05 11:03 | 53.81605 | 7.22777 | 37970 ft | 424 kts | 221° |
| 2026-05-05 11:04 | 53.77041 | 7.16461 | 37957 ft | 424 kts | 221° |
| 2026-05-05 11:04 | 53.72475 | 7.10163 | 37963 ft | 424 kts | 221° |
| 2026-05-05 11:05 | 53.67910 | 7.03873 | 37974 ft | 423 kts | 221° |
| 2026-05-05 11:05 | 53.63339 | 6.97615 | 37974 ft | 423 kts | 220° |
| 2026-05-05 11:06 | 53.58764 | 6.91369 | 37984 ft | 423 kts | 220° |
| 2026-05-05 11:06 | 53.54928 | 6.86134 | 37982 ft | 424 kts | 220° |
| 2026-05-05 11:07 | 53.50353 | 6.79903 | 37970 ft | 423 kts | 220° |
| 2026-05-05 11:07 | 53.45774 | 6.73697 | 37980 ft | 423 kts | 220° |
| 2026-05-05 11:08 | 53.41195 | 6.67517 | 37989 ft | 423 kts | 220° |
| 2026-05-05 11:08 | 53.36611 | 6.61341 | 37985 ft | 423 kts | 220° |
| 2026-05-05 11:09 | 53.32653 | 6.54159 | 37979 ft | 420 kts | 233° |
| 2026-05-05 11:09 | 53.29135 | 6.46337 | 37979 ft | 421 kts | 233° |
| 2026-05-05 11:10 | 53.25612 | 6.38528 | 37965 ft | 421 kts | 233° |
| 2026-05-05 11:10 | 53.22077 | 6.30736 | 37968 ft | 421 kts | 233° |
| 2026-05-05 11:11 | 53.18532 | 6.22944 | 37965 ft | 421 kts | 233° |
| 2026-05-05 11:11 | 53.14984 | 6.15175 | 37966 ft | 421 kts | 233° |
| 2026-05-05 11:12 | 53.11406 | 6.07375 | 37980 ft | 421 kts | 233° |
| 2026-05-05 11:12 | 53.07842 | 5.99632 | 37954 ft | 422 kts | 233° |
| 2026-05-05 11:13 | 53.04268 | 5.91896 | 37961 ft | 422 kts | 233° |
| 2026-05-05 11:13 | 53.00685 | 5.84163 | 37961 ft | 422 kts | 232° |
| 2026-05-05 11:14 | 52.97098 | 5.76435 | 37965 ft | 423 kts | 232° |
| 2026-05-05 11:14 | 52.93511 | 5.68716 | 37967 ft | 423 kts | 232° |
| 2026-05-05 11:15 | 52.89914 | 5.61011 | 37963 ft | 423 kts | 232° |
| 2026-05-05 11:15 | 52.86317 | 5.53319 | 37964 ft | 423 kts | 232° |
| 2026-05-05 11:16 | 52.82715 | 5.45637 | 37964 ft | 423 kts | 232° |
| 2026-05-05 11:16 | 52.79101 | 5.37960 | 37966 ft | 423 kts | 232° |
| 2026-05-05 11:17 | 52.75486 | 5.30311 | 37971 ft | 423 kts | 232° |
| 2026-05-05 11:17 | 52.71861 | 5.22671 | 37965 ft | 423 kts | 232° |
| 2026-05-05 11:18 | 52.68238 | 5.15057 | 37965 ft | 422 kts | 232° |
| 2026-05-05 11:18 | 52.64602 | 5.07443 | 37948 ft | 423 kts | 232° |
| 2026-05-05 11:19 | 52.60944 | 4.99785 | 37955 ft | 423 kts | 232° |
| 2026-05-05 11:19 | 52.57296 | 4.92178 | 37958 ft | 424 kts | 231° |
| 2026-05-05 11:20 | 52.53704 | 4.84583 | 37959 ft | 424 kts | 236° |
| 2026-05-05 11:20 | 52.50464 | 4.76428 | 37953 ft | 424 kts | 236° |
| 2026-05-05 11:21 | 52.47236 | 4.68339 | 37956 ft | 424 kts | 236° |
| 2026-05-05 11:21 | 52.43998 | 4.60262 | 37956 ft | 424 kts | 236° |
| 2026-05-05 11:22 | 52.40755 | 4.52187 | 37949 ft | 424 kts | 236° |
| 2026-05-05 11:22 | 52.37499 | 4.44119 | 37945 ft | 425 kts | 236° |
| 2026-05-05 11:23 | 52.34232 | 4.36051 | 37948 ft | 426 kts | 236° |
| 2026-05-05 11:23 | 52.30960 | 4.27987 | 37951 ft | 426 kts | 236° |
| 2026-05-05 11:24 | 52.27754 | 4.20125 | 37950 ft | 426 kts | 236° |
| 2026-05-05 11:24 | 52.24468 | 4.12082 | 37955 ft | 425 kts | 236° |
| 2026-05-05 11:25 | 52.21202 | 4.04105 | 37939 ft | 426 kts | 236° |
| 2026-05-05 11:25 | 52.17899 | 3.96037 | 37945 ft | 425 kts | 236° |
| 2026-05-05 11:26 | 52.14606 | 3.88039 | 37961 ft | 425 kts | 236° |
| 2026-05-05 11:26 | 52.11300 | 3.80038 | 37953 ft | 426 kts | 236° |
| 2026-05-05 11:27 | 52.07976 | 3.72048 | 37963 ft | 427 kts | 236° |
| 2026-05-05 11:27 | 52.04627 | 3.64014 | 37963 ft | 427 kts | 236° |
| 2026-05-05 11:28 | 52.01297 | 3.56026 | 37963 ft | 427 kts | 236° |
| 2026-05-05 11:28 | 51.97953 | 3.48063 | 37960 ft | 427 kts | 235° |
| 2026-05-05 11:29 | 51.94611 | 3.40122 | 37968 ft | 426 kts | 235° |
| 2026-05-05 11:29 | 51.91267 | 3.32180 | 37966 ft | 426 kts | 235° |
| 2026-05-05 11:30 | 51.87912 | 3.24257 | 37969 ft | 427 kts | 235° |
| 2026-05-05 11:30 | 51.85197 | 3.15754 | 37968 ft | 428 kts | 252° |
| 2026-05-05 11:31 | 51.84228 | 3.06259 | 37967 ft | 429 kts | 263° |
| 2026-05-05 11:31 | 51.83611 | 2.96658 | 37965 ft | 430 kts | 262° |
| 2026-05-05 11:32 | 51.82973 | 2.87049 | 37973 ft | 430 kts | 262° |
| 2026-05-05 11:32 | 51.82327 | 2.77441 | 37964 ft | 431 kts | 262° |
| 2026-05-05 11:33 | 51.81666 | 2.67809 | 37964 ft | 431 kts | 262° |
| 2026-05-05 11:33 | 51.81334 | 2.62987 | 37800 ft | 432 kts | 262° |
| 2026-05-05 11:33 | 51.80996 | 2.58111 | 37520 ft | 431 kts | 262° |
| 2026-05-05 11:33 | 51.80659 | 2.53300 | 37249 ft | 431 kts | 262° |
| 2026-05-05 11:34 | 51.80322 | 2.48497 | 36785 ft | 430 kts | 262° |
| 2026-05-05 11:34 | 51.79983 | 2.43680 | 36039 ft | 433 kts | 262° |
| 2026-05-05 11:34 | 51.79641 | 2.38821 | 35270 ft | 437 kts | 262° |
| 2026-05-05 11:34 | 51.79297 | 2.33924 | 34464 ft | 441 kts | 262° |
| 2026-05-05 11:35 | 51.78946 | 2.28982 | 33602 ft | 444 kts | 262° |
| 2026-05-05 11:35 | 51.78596 | 2.24081 | 33106 ft | 434 kts | 261° |
| 2026-05-05 11:35 | 51.78260 | 2.19274 | 32485 ft | 428 kts | 261° |
| 2026-05-05 11:35 | 51.77963 | 2.14509 | 31805 ft | 425 kts | 262° |
| 2026-05-05 11:36 | 51.77693 | 2.09784 | 31112 ft | 422 kts | 262° |
| 2026-05-05 11:36 | 51.77432 | 2.05060 | 30209 ft | 424 kts | 262° |
| 2026-05-05 11:36 | 51.77166 | 2.00309 | 29485 ft | 423 kts | 262° |
| 2026-05-05 11:36 | 51.76897 | 1.95599 | 28974 ft | 420 kts | 262° |
| 2026-05-05 11:37 | 51.76617 | 1.90881 | 27891 ft | 426 kts | 262° |
| 2026-05-05 11:37 | 51.76328 | 1.86124 | 27030 ft | 424 kts | 262° |
| 2026-05-05 11:37 | 51.76037 | 1.81417 | 26385 ft | 417 kts | 262° |
| 2026-05-05 11:37 | 51.75751 | 1.76813 | 25830 ft | 409 kts | 262° |
| 2026-05-05 11:38 | 51.75466 | 1.72278 | 25314 ft | 403 kts | 262° |
| 2026-05-05 11:38 | 51.75182 | 1.67797 | 24802 ft | 400 kts | 262° |
| 2026-05-05 11:38 | 51.74899 | 1.63351 | 24303 ft | 398 kts | 262° |
| 2026-05-05 11:38 | 51.74617 | 1.58912 | 23808 ft | 396 kts | 263° |
| 2026-05-05 11:39 | 51.74338 | 1.54500 | 23272 ft | 395 kts | 262° |
| 2026-05-05 11:39 | 51.74149 | 1.51522 | 22874 ft | 394 kts | 262° |
| 2026-05-05 11:39 | 51.73869 | 1.47144 | 22310 ft | 392 kts | 262° |
| 2026-05-05 11:39 | 51.73587 | 1.42779 | 21754 ft | 390 kts | 263° |
| 2026-05-05 11:40 | 51.73301 | 1.38428 | 21208 ft | 388 kts | 263° |
| 2026-05-05 11:40 | 51.73018 | 1.34117 | 20684 ft | 385 kts | 263° |
| 2026-05-05 11:40 | 51.72737 | 1.29837 | 20181 ft | 382 kts | 263° |
| 2026-05-05 11:40 | 51.72458 | 1.25605 | 19713 ft | 378 kts | 263° |
| 2026-05-05 11:41 | 51.72179 | 1.21411 | 19263 ft | 374 kts | 263° |
| 2026-05-05 11:41 | 51.71900 | 1.17254 | 18802 ft | 371 kts | 263° |
| 2026-05-05 11:41 | 51.71623 | 1.13124 | 18266 ft | 370 kts | 263° |
| 2026-05-05 11:41 | 51.71348 | 1.09013 | 17681 ft | 368 kts | 263° |
| 2026-05-05 11:42 | 51.71074 | 1.04930 | 17100 ft | 365 kts | 263° |
| 2026-05-05 11:42 | 51.70800 | 1.00878 | 16598 ft | 362 kts | 263° |
| 2026-05-05 11:42 | 51.70527 | 0.96875 | 16116 ft | 358 kts | 263° |
| 2026-05-05 11:42 | 51.70253 | 0.92896 | 15669 ft | 355 kts | 264° |
| 2026-05-05 11:43 | 51.69976 | 0.88951 | 15244 ft | 353 kts | 264° |
| 2026-05-05 11:43 | 51.69699 | 0.85031 | 14766 ft | 351 kts | 264° |
| 2026-05-05 11:43 | 51.69424 | 0.81130 | 14264 ft | 349 kts | 264° |
| 2026-05-05 11:43 | 51.69151 | 0.77258 | 14008 ft | 346 kts | 264° |
| 2026-05-05 11:44 | 51.68878 | 0.73405 | 13968 ft | 347 kts | 264° |
| 2026-05-05 11:44 | 51.68603 | 0.69537 | 13954 ft | 348 kts | 264° |
| 2026-05-05 11:44 | 51.68326 | 0.65666 | 13632 ft | 347 kts | 264° |
| 2026-05-05 11:44 | 51.68051 | 0.61820 | 13231 ft | 344 kts | 264° |
| 2026-05-05 11:45 | 51.67778 | 0.58018 | 12832 ft | 339 kts | 264° |
| 2026-05-05 11:45 | 51.67506 | 0.54295 | 12438 ft | 331 kts | 264° |
| 2026-05-05 11:45 | 51.67236 | 0.50609 | 12064 ft | 322 kts | 264° |
| 2026-05-05 11:45 | 51.66982 | 0.47138 | 11780 ft | 311 kts | 264° |
| 2026-05-05 11:46 | 51.66730 | 0.43683 | 11516 ft | 302 kts | 264° |
| 2026-05-05 11:46 | 51.66487 | 0.40346 | 11184 ft | 298 kts | 264° |
| 2026-05-05 11:46 | 51.66247 | 0.37048 | 10815 ft | 295 kts | 264° |
| 2026-05-05 11:46 | 51.66006 | 0.33775 | 10461 ft | 293 kts | 264° |
| 2026-05-05 11:47 | 51.65764 | 0.30526 | 10083 ft | 290 kts | 264° |
| 2026-05-05 11:47 | 51.65527 | 0.27339 | 9786 ft | 283 kts | 264° |
| 2026-05-05 11:47 | 51.65295 | 0.24229 | 9495 ft | 276 kts | 264° |
| 2026-05-05 11:47 | 51.65065 | 0.21191 | 9228 ft | 269 kts | 264° |
| 2026-05-05 11:48 | 51.64624 | 0.15352 | 8972 ft | 255 kts | 265° |
| 2026-05-05 11:48 | 51.64468 | 0.12525 | 8973 ft | 253 kts | 266° |
| 2026-05-05 11:48 | 51.64332 | 0.09701 | 8977 ft | 253 kts | 266° |
| 2026-05-05 11:49 | 51.64191 | 0.06875 | 8977 ft | 253 kts | 266° |
| 2026-05-05 11:49 | 51.64050 | 0.04052 | 8975 ft | 253 kts | 266° |
| 2026-05-05 11:49 | 51.63905 | 0.01225 | 8977 ft | 253 kts | 266° |
| 2026-05-05 11:49 | 51.63754 | -0.01598 | 9003 ft | 253 kts | 266° |
| 2026-05-05 11:50 | 51.63606 | -0.04425 | 8997 ft | 253 kts | 266° |
| 2026-05-05 11:50 | 51.63461 | -0.07241 | 8994 ft | 252 kts | 266° |
| 2026-05-05 11:50 | 51.63313 | -0.10051 | 9001 ft | 252 kts | 266° |
| 2026-05-05 11:50 | 51.63170 | -0.12869 | 9001 ft | 252 kts | 266° |
| 2026-05-05 11:51 | 51.63024 | -0.15677 | 9003 ft | 252 kts | 266° |
| 2026-05-05 11:51 | 51.62878 | -0.18492 | 9002 ft | 252 kts | 266° |
| 2026-05-05 11:51 | 51.62729 | -0.21343 | 9003 ft | 252 kts | 266° |
| 2026-05-05 11:51 | 51.62582 | -0.24157 | 9002 ft | 252 kts | 266° |
| 2026-05-05 11:52 | 51.62428 | -0.26968 | 9003 ft | 253 kts | 266° |
| 2026-05-05 11:52 | 51.62273 | -0.29782 | 9001 ft | 252 kts | 266° |
| 2026-05-05 11:52 | 51.62125 | -0.32600 | 8974 ft | 252 kts | 266° |
| 2026-05-05 11:52 | 51.61975 | -0.35417 | 8974 ft | 253 kts | 266° |
| 2026-05-05 11:53 | 51.61830 | -0.38226 | 8976 ft | 252 kts | 266° |
| 2026-05-05 11:53 | 51.61689 | -0.41040 | 8974 ft | 252 kts | 266° |
| 2026-05-05 11:53 | 51.61542 | -0.43873 | 8722 ft | 255 kts | 266° |
| 2026-05-05 11:53 | 51.61391 | -0.46715 | 8415 ft | 255 kts | 266° |
| 2026-05-05 11:54 | 51.61243 | -0.49548 | 8159 ft | 253 kts | 266° |
| 2026-05-05 11:54 | 51.61094 | -0.52350 | 7993 ft | 250 kts | 266° |
| 2026-05-05 11:54 | 51.60945 | -0.55135 | 7974 ft | 250 kts | 266° |
| 2026-05-05 11:54 | 51.60800 | -0.57939 | 7774 ft | 252 kts | 266° |
| 2026-05-05 11:55 | 51.60654 | -0.60731 | 7524 ft | 250 kts | 266° |
| 2026-05-05 11:55 | 51.60508 | -0.63547 | 7271 ft | 248 kts | 266° |
| 2026-05-05 11:55 | 51.60370 | -0.66310 | 7040 ft | 247 kts | 266° |
| 2026-05-05 11:55 | 51.60042 | -0.69007 | 6795 ft | 248 kts | 245° |
| 2026-05-05 11:56 | 51.59046 | -0.71256 | 6510 ft | 248 kts | 228° |
| 2026-05-05 11:56 | 51.57877 | -0.73298 | 6180 ft | 249 kts | 226° |
| 2026-05-05 11:56 | 51.56690 | -0.75325 | 5835 ft | 249 kts | 226° |
| 2026-05-05 11:56 | 51.55509 | -0.77342 | 5569 ft | 245 kts | 226° |
| 2026-05-05 11:57 | 51.54349 | -0.79315 | 5304 ft | 240 kts | 226° |
| 2026-05-05 11:57 | 51.53160 | -0.81119 | 5033 ft | 231 kts | 210° |
| 2026-05-05 11:57 | 51.51682 | -0.81813 | 4786 ft | 218 kts | 175° |
| 2026-05-05 11:57 | 51.50276 | -0.81210 | 4587 ft | 204 kts | 152° |
| 2026-05-05 11:58 | 51.49125 | -0.79986 | 4279 ft | 196 kts | 135° |
| 2026-05-05 11:58 | 51.48266 | -0.78324 | 3865 ft | 194 kts | 117° |
| 2026-05-05 11:58 | 51.47758 | -0.76366 | 3550 ft | 187 kts | 101° |
| 2026-05-05 11:58 | 51.47612 | -0.74327 | 3295 ft | 183 kts | 86° |
| 2026-05-05 11:59 | 51.47626 | -0.72294 | 3048 ft | 182 kts | 85° |
| 2026-05-05 11:59 | 51.47639 | -0.70265 | 2802 ft | 181 kts | 85° |
| 2026-05-05 11:59 | 51.47651 | -0.68253 | 2551 ft | 181 kts | 86° |
| 2026-05-05 11:59 | 51.47662 | -0.66252 | 2307 ft | 178 kts | 87° |
| 2026-05-05 12:00 | 51.47673 | -0.64269 | 2060 ft | 178 kts | 85° |
| 2026-05-05 12:00 | 51.47684 | -0.62302 | 1815 ft | 174 kts | 85° |
| 2026-05-05 12:00 | 51.47693 | -0.60396 | 1579 ft | 167 kts | 85° |
| 2026-05-05 12:00 | 51.47702 | -0.58568 | 1357 ft | 162 kts | 85° |
| 2026-05-05 12:01 | 51.47711 | -0.56782 | 1148 ft | 159 kts | 86° |
| 2026-05-05 12:01 | 51.47718 | -0.55065 | 938 ft | 145 kts | 85° |
| 2026-05-05 12:01 | 51.47725 | -0.53508 | 717 ft | 133 kts | 86° |
| 2026-05-05 12:01 | 51.47731 | -0.52069 | 521 ft | 126 kts | 85° |
| 2026-05-05 12:02 | 51.47737 | -0.50668 | 365 ft | 126 kts | 87° |
| 2026-05-05 12:02 | 51.47746 | -0.49269 | 215 ft | 126 kts | 86° |
| 2026-05-05 12:02 | 51.47751 | -0.47871 | 91 ft | 123 kts | 87° |
| 2026-05-05 12:02 | 51.47759 | -0.46715 | 92 ft | 81 kts | 89° |
| 2026-05-05 12:03 | 51.47740 | -0.46188 | 89 ft | 23 kts | 128° |
| 2026-05-05 12:03 | 51.47657 | -0.46091 | 89 ft | 9 kts | 146° |
| 2026-05-05 12:03 | 51.47597 | -0.46069 | 86 ft | 10 kts | 222° |
| 2026-05-05 12:03 | 51.47593 | -0.46188 | 86 ft | 12 kts | 272° |
| 2026-05-05 12:04 | 51.47593 | -0.46324 | 86 ft | 13 kts | 270° |
| 2026-05-05 12:04 | 51.47592 | -0.46470 | 86 ft | 12 kts | 270° |
| 2026-05-05 12:04 | 51.47592 | -0.46614 | 86 ft | 13 kts | 270° |
| 2026-05-05 12:04 | 51.47591 | -0.46744 | 86 ft | 13 kts | 270° |
| 2026-05-05 12:05 | 51.47583 | -0.46901 | 86 ft | 15 kts | 267° |
| 2026-05-05 12:05 | 51.47582 | -0.47087 | 87 ft | 18 kts | 269° |
| 2026-05-05 12:05 | 51.47581 | -0.47302 | 88 ft | 21 kts | 269° |
| 2026-05-05 12:05 | 51.47580 | -0.47545 | 87 ft | 23 kts | 270° |
| 2026-05-05 12:06 | 51.47580 | -0.47813 | 86 ft | 25 kts | 269° |
| 2026-05-05 12:06 | 51.47579 | -0.48080 | 86 ft | 22 kts | 269° |
| 2026-05-05 12:06 | 51.47578 | -0.48308 | 90 ft | 15 kts | 269° |
| 2026-05-05 12:06 | 51.47575 | -0.48425 | 86 ft | 10 kts | 256° |
| 2026-05-05 12:07 | 51.47528 | -0.48475 | 88 ft | 8 kts | 185° |
| 2026-05-05 12:07 | 51.47461 | -0.48475 | 86 ft | 10 kts | 179° |
| 2026-05-05 12:07 | 51.47389 | -0.48475 | 86 ft | 11 kts | 179° |
| 2026-05-05 12:07 | 51.47316 | -0.48474 | 86 ft | 12 kts | 179° |
| 2026-05-05 12:08 | 51.47233 | -0.48473 | 86 ft | 12 kts | 180° |
| 2026-05-05 12:08 | 51.47155 | -0.48473 | 86 ft | 11 kts | 180° |
| 2026-05-05 12:08 | 51.47081 | -0.48473 | 86 ft | 10 kts | 180° |
| 2026-05-05 12:08 | 51.47007 | -0.48471 | 86 ft | 11 kts | 178° |
| 2026-05-05 12:09 | 51.46930 | -0.48469 | 86 ft | 11 kts | 179° |
| 2026-05-05 12:09 | 51.46880 | -0.48512 | 86 ft | 9 kts | 255° |
| 2026-05-05 12:09 | 51.46877 | -0.48607 | 86 ft | 8 kts | 268° |
| 2026-05-05 12:09 | 51.46876 | -0.48696 | 89 ft | 8 kts | 270° |
| 2026-05-05 12:10 | 51.46877 | -0.48754 | 86 ft | 8 kts | 270° |
| 2026-05-05 12:10 | 51.46876 | -0.48834 | 86 ft | 6 kts | 272° |
| 2026-05-05 12:10 | 51.46896 | -0.48859 | 89 ft | 3 kts | 348° |
| 2026-05-05 12:10 | 51.46920 | -0.48859 | 86 ft | 2 kts | 1° |
| 2026-05-05 12:11 | 51.46931 | -0.48859 | 86 ft | 1 kts | 0° |